createdAt,value
2023-03-23T00:00:21.319Z,1.04
2023-03-23T00:01:21.416Z,1.04
2023-03-23T00:02:21.520Z,1.04
2023-03-23T00:03:21.667Z,1.04
2023-03-23T00:04:21.763Z,1.04
2023-03-23T00:05:21.873Z,1.04
2023-03-23T00:06:21.971Z,1.04
2023-03-23T00:07:22.080Z,1.04
2023-03-23T00:08:22.180Z,1.04
2023-03-23T00:09:22.318Z,1.04
2023-03-23T00:10:22.488Z,1.04
2023-03-23T00:11:22.630Z,1.04
2023-03-23T00:12:22.777Z,1.04
2023-03-23T00:13:22.968Z,1.04
2023-03-23T00:14:23.015Z,1.04
2023-03-23T00:15:23.117Z,1.04
2023-03-23T00:16:23.284Z,1.04
2023-03-23T00:17:23.420Z,1.04
2023-03-23T00:18:23.571Z,1.04
2023-03-23T00:19:24.664Z,1.04
2023-03-23T00:20:23.858Z,1.04
2023-03-23T00:21:23.995Z,1.04
2023-03-23T00:22:24.149Z,1.04
2023-03-23T00:23:24.307Z,1.04
2023-03-23T00:24:24.443Z,1.04
2023-03-23T00:25:24.631Z,1.04
2023-03-23T00:26:24.701Z,1.04
2023-03-23T00:27:24.904Z,1.04
2023-03-23T00:28:24.950Z,1.04
2023-03-23T00:29:25.110Z,1.04
2023-03-23T00:30:25.234Z,1.04
2023-03-23T00:31:25.363Z,1.04
2023-03-23T00:32:25.546Z,1.04
2023-03-23T00:33:25.671Z,1.04
2023-03-23T00:34:25.821Z,1.04
2023-03-23T00:35:25.984Z,1.04
2023-03-23T00:36:26.126Z,1.04
2023-03-23T00:37:26.277Z,1.04
2023-03-23T00:38:26.419Z,1.04
2023-03-23T00:39:26.529Z,1.04
2023-03-23T00:40:26.684Z,1.04
2023-03-23T00:41:26.847Z,1.04
2023-03-23T00:42:26.999Z,1.04
2023-03-23T00:43:27.133Z,1.04
2023-03-23T00:44:27.281Z,1.04
2023-03-23T00:45:27.437Z,1.04
2023-03-23T00:46:27.598Z,1.04
2023-03-23T00:47:27.702Z,1.04
2023-03-23T00:48:27.843Z,1.04
2023-03-23T00:49:27.989Z,1.04
2023-03-23T00:50:33.732Z,1.04
2023-03-23T00:51:28.292Z,1.04
2023-03-23T00:52:28.455Z,1.04
2023-03-23T00:53:28.602Z,1.04
2023-03-23T00:54:28.750Z,1.04
2023-03-23T00:55:28.911Z,1.04
2023-03-23T00:56:29.052Z,1.04
2023-03-23T00:57:29.214Z,1.04
2023-03-23T00:58:29.357Z,1.04
2023-03-23T00:59:29.522Z,1.04
2023-03-23T01:00:29.663Z,1.04
2023-03-23T01:01:29.762Z,1.04
2023-03-23T01:02:29.940Z,1.04
2023-03-23T01:03:30.035Z,1.04
2023-03-23T01:04:30.140Z,1.04
2023-03-23T01:06:30.414Z,1.04
2023-03-23T01:07:30.588Z,1.04
2023-03-23T01:08:30.667Z,1.04
2023-03-23T01:09:30.832Z,1.04
2023-03-23T01:10:30.969Z,1.04
2023-03-23T01:11:31.137Z,1.04
2023-03-23T01:12:31.293Z,1.04
2023-03-23T01:13:31.433Z,1.04
2023-03-23T01:14:31.531Z,1.04
2023-03-23T01:15:31.681Z,1.04
2023-03-23T01:16:31.789Z,1.04
2023-03-23T01:17:31.957Z,1.04
2023-03-23T01:18:33.731Z,1.04
2023-03-23T01:19:32.242Z,1.04
2023-03-23T01:20:32.690Z,1.04
2023-03-23T01:21:32.492Z,1.04
2023-03-23T01:22:33.131Z,1.04
2023-03-23T01:24:32.850Z,1.04
2023-03-23T01:25:33.533Z,1.04
2023-03-23T01:26:33.462Z,1.04
2023-03-23T01:27:33.264Z,1.04
2023-03-23T01:28:33.961Z,1.04
2023-03-23T01:29:33.999Z,1.04
2023-03-23T01:31:34.220Z,1.04
2023-03-23T01:33:34.596Z,1.04
2023-03-23T01:35:34.809Z,1.04
2023-03-23T01:36:34.785Z,1.04
2023-03-23T01:37:34.576Z,1.04
2023-03-23T01:38:34.715Z,1.04
2023-03-23T01:39:34.869Z,1.04
2023-03-23T01:40:35.036Z,1.04
2023-03-23T01:41:35.118Z,1.04
2023-03-23T01:42:35.271Z,1.04
2023-03-23T01:43:35.384Z,1.04
2023-03-23T01:44:35.529Z,1.04
2023-03-23T01:45:35.631Z,1.04
2023-03-23T01:46:35.810Z,1.04
2023-03-23T01:47:36.012Z,1.04
2023-03-23T01:48:36.170Z,1.04
2023-03-23T01:49:36.384Z,1.04
2023-03-23T01:50:36.513Z,1.04
2023-03-23T01:51:41.786Z,1.04
2023-03-23T01:52:36.734Z,1.04
2023-03-23T01:53:36.911Z,1.04
2023-03-23T01:54:37.044Z,1.04
2023-03-23T01:55:37.209Z,1.04
2023-03-23T01:56:37.346Z,1.04
2023-03-23T01:57:37.446Z,1.04
2023-03-23T01:58:37.594Z,1.04
2023-03-23T01:59:37.748Z,1.04
2023-03-23T02:00:37.857Z,1.04
2023-03-23T02:01:38.019Z,1.04
2023-03-23T02:02:38.160Z,1.04
2023-03-23T02:03:38.316Z,1.04
2023-03-23T02:04:38.485Z,1.04
2023-03-23T02:05:38.622Z,1.04
2023-03-23T02:06:38.666Z,1.04
2023-03-23T02:07:38.817Z,1.04
2023-03-23T02:08:38.967Z,1.04
2023-03-23T02:09:39.120Z,1.04
2023-03-23T02:10:39.281Z,1.04
2023-03-23T02:11:39.426Z,1.04
2023-03-23T02:12:39.573Z,1.04
2023-03-23T02:13:39.725Z,1.04
2023-03-23T02:14:39.876Z,1.04
2023-03-23T02:15:40.186Z,1.04
2023-03-23T02:16:40.136Z,1.04
2023-03-23T02:17:40.300Z,1.04
2023-03-23T02:18:40.441Z,1.04
2023-03-23T02:19:40.590Z,1.04
2023-03-23T02:20:40.750Z,1.04
2023-03-23T02:21:40.902Z,1.04
2023-03-23T02:22:41.039Z,1.04
2023-03-23T02:23:41.183Z,1.04
2023-03-23T02:24:41.340Z,1.04
2023-03-23T02:25:41.568Z,1.04
2023-03-23T02:26:41.596Z,1.04
2023-03-23T02:27:41.751Z,1.04
2023-03-23T02:28:41.898Z,1.04
2023-03-23T02:29:43.158Z,1.04
2023-03-23T02:30:42.150Z,1.04
2023-03-23T02:31:42.244Z,1.04
2023-03-23T02:32:42.360Z,1.04
2023-03-23T02:33:42.454Z,1.04
2023-03-23T02:34:42.615Z,1.04
2023-03-23T02:35:42.928Z,1.04
2023-03-23T02:36:42.871Z,1.04
2023-03-23T02:37:43.005Z,1.04
2023-03-23T02:38:43.161Z,1.04
2023-03-23T02:39:43.321Z,1.04
2023-03-23T02:40:43.411Z,1.04
2023-03-23T02:41:43.598Z,1.04
2023-03-23T02:42:43.715Z,1.04
2023-03-23T02:43:43.875Z,1.04
2023-03-23T02:44:44.025Z,1.04
2023-03-23T02:45:44.202Z,1.04
2023-03-23T02:46:44.276Z,1.04
2023-03-23T02:47:44.424Z,1.04
2023-03-23T02:48:44.578Z,1.04
2023-03-23T02:49:44.667Z,1.04
2023-03-23T02:50:44.822Z,1.04
2023-03-23T02:51:44.934Z,1.04
2023-03-23T02:52:45.083Z,1.04
2023-03-23T02:53:45.248Z,1.04
2023-03-23T02:54:45.381Z,1.04
2023-03-23T02:55:45.537Z,1.04
2023-03-23T02:56:45.690Z,1.04
2023-03-23T02:57:45.837Z,1.04
2023-03-23T02:58:45.996Z,1.04
2023-03-23T02:59:46.148Z,1.04
2023-03-23T03:00:46.300Z,1.04
2023-03-23T03:01:46.405Z,1.04
2023-03-23T03:02:46.497Z,1.04
2023-03-23T03:03:46.650Z,1.04
2023-03-23T03:04:46.758Z,1.04
2023-03-23T03:05:46.862Z,1.04
2023-03-23T03:06:46.997Z,1.04
2023-03-23T03:07:47.105Z,1.04
2023-03-23T03:08:47.251Z,1.04
2023-03-23T03:09:47.414Z,1.04
2023-03-23T03:10:47.574Z,1.04
2023-03-23T03:11:47.717Z,1.04
2023-03-23T03:12:47.864Z,1.04
2023-03-23T03:13:47.975Z,1.04
2023-03-23T03:14:48.071Z,1.04
2023-03-23T03:15:48.194Z,1.04
2023-03-23T03:16:48.365Z,1.04
2023-03-23T03:17:48.470Z,1.04
2023-03-23T03:18:48.618Z,1.04
2023-03-23T03:19:48.786Z,1.04
2023-03-23T03:20:48.922Z,1.04
2023-03-23T03:21:49.032Z,1.04
2023-03-23T03:22:49.434Z,1.04
2023-03-23T03:24:50.075Z,1.04
2023-03-23T03:25:49.617Z,1.04
2023-03-23T03:26:49.732Z,1.04
2023-03-23T03:27:49.892Z,1.04
2023-03-23T03:28:50.046Z,1.04
2023-03-23T03:29:50.193Z,1.04
2023-03-23T03:30:50.380Z,1.04
2023-03-23T03:31:50.502Z,1.04
2023-03-23T03:32:50.648Z,1.04
2023-03-23T03:33:50.744Z,1.04
2023-03-23T03:34:50.896Z,1.04
2023-03-23T03:35:51.005Z,1.04
2023-03-23T03:36:51.163Z,1.04
2023-03-23T03:37:51.304Z,1.04
2023-03-23T03:38:51.464Z,1.04
2023-03-23T03:39:51.629Z,1.04
2023-03-23T03:40:51.768Z,1.04
2023-03-23T03:41:51.872Z,1.04
2023-03-23T03:42:51.990Z,1.04
2023-03-23T03:43:52.111Z,1.04
2023-03-23T03:44:52.280Z,1.04
2023-03-23T03:45:52.425Z,1.04
2023-03-23T03:46:52.577Z,1.04
2023-03-23T03:47:52.726Z,1.04
2023-03-23T03:48:52.868Z,1.04
2023-03-23T03:49:53.025Z,1.04
2023-03-23T03:50:53.127Z,1.04
2023-03-23T03:51:53.259Z,1.04
2023-03-23T03:52:53.380Z,1.04
2023-03-23T03:53:53.520Z,1.04
2023-03-23T03:54:53.679Z,1.04
2023-03-23T03:55:53.830Z,1.04
2023-03-23T03:56:53.933Z,1.04
2023-03-23T03:57:54.047Z,1.04
2023-03-23T03:58:54.151Z,1.04
2023-03-23T03:59:54.280Z,1.04
2023-03-23T04:00:54.447Z,1.04
2023-03-23T04:01:54.596Z,1.04
2023-03-23T04:02:54.752Z,1.04
2023-03-23T04:03:54.895Z,1.04
2023-03-23T04:04:55.052Z,1.04
2023-03-23T04:05:58.356Z,1.04
2023-03-23T04:06:55.321Z,1.04
2023-03-23T04:07:55.400Z,1.04
2023-03-23T04:09:07.751Z,1.04
2023-03-23T04:09:55.652Z,1.04
2023-03-23T04:10:55.805Z,1.04
2023-03-23T04:11:55.911Z,1.04
2023-03-23T04:12:56.013Z,1.04
2023-03-23T04:13:56.179Z,1.04
2023-03-23T04:14:56.309Z,1.04
2023-03-23T04:16:07.398Z,1.04
2023-03-23T04:16:56.608Z,1.04
2023-03-23T04:17:56.720Z,1.04
2023-03-23T04:18:56.818Z,1.04
2023-03-23T04:19:56.962Z,1.04
2023-03-23T04:20:57.129Z,1.04
2023-03-23T04:21:57.293Z,1.04
2023-03-23T04:22:57.437Z,1.04
2023-03-23T04:23:57.594Z,1.04
2023-03-23T04:24:57.770Z,1.04
2023-03-23T04:25:57.878Z,1.04
2023-03-23T04:26:58.027Z,1.04
2023-03-23T04:27:59.170Z,1.04
2023-03-23T04:28:58.282Z,1.04
2023-03-23T04:29:58.432Z,1.04
2023-03-23T04:30:58.541Z,1.04
2023-03-23T04:31:59.075Z,1.04
2023-03-23T04:32:58.789Z,2
2023-03-23T04:33:59.709Z,2
2023-03-23T04:34:59.052Z,2
2023-03-23T04:35:59.221Z,2
2023-03-23T04:36:59.346Z,3.04
2023-03-23T04:37:59.514Z,3.04
2023-03-23T04:38:59.688Z,4
2023-03-23T04:39:59.836Z,4
2023-03-23T04:40:59.965Z,5.04
2023-03-23T04:42:00.133Z,6
2023-03-23T04:43:00.254Z,7.04
2023-03-23T04:44:00.417Z,9.04
2023-03-23T04:45:00.560Z,11.04
2023-03-23T04:46:00.708Z,13.04
2023-03-23T04:47:00.861Z,17.04
2023-03-23T04:48:01.019Z,19.04
2023-03-23T04:49:01.171Z,23.04
2023-03-23T04:50:01.322Z,27.04
2023-03-23T04:51:01.454Z,30
2023-03-23T04:52:01.534Z,34
2023-03-23T04:53:01.626Z,37.04
2023-03-23T04:54:01.777Z,40
2023-03-23T04:55:01.938Z,46
2023-03-23T04:56:02.077Z,53.04
2023-03-23T04:57:02.235Z,65.04
2023-03-23T04:58:02.389Z,77.04
2023-03-23T04:59:02.530Z,89.04
2023-03-23T05:00:02.638Z,107.04
2023-03-23T05:01:02.740Z,118
2023-03-23T05:02:13.818Z,131.04
2023-03-23T05:03:03.048Z,149.04
2023-03-23T05:04:03.185Z,167.04
2023-03-23T05:05:03.341Z,193.12
2023-03-23T05:06:03.520Z,215.04
2023-03-23T05:07:03.688Z,237.12
2023-03-23T05:08:03.801Z,261.12
2023-03-23T05:09:03.907Z,279.04
2023-03-23T05:10:04.051Z,301.12
2023-03-23T05:11:04.168Z,333.12
2023-03-23T05:12:04.259Z,355.2
2023-03-23T05:13:04.408Z,382.08
2023-03-23T05:14:04.541Z,403.2
2023-03-23T05:15:04.741Z,423.04
2023-03-23T05:16:04.819Z,447.04
2023-03-23T05:17:04.967Z,462.08
2023-03-23T05:18:05.134Z,472
2023-03-23T05:19:05.270Z,480
2023-03-23T05:20:05.415Z,483.2
2023-03-23T05:21:05.576Z,486.08
2023-03-23T05:22:05.715Z,488
2023-03-23T05:23:05.876Z,482.24
2023-03-23T05:24:05.975Z,470.08
2023-03-23T05:25:06.129Z,459.2
2023-03-23T05:26:06.295Z,447.04
2023-03-23T05:27:06.435Z,421.12
2023-03-23T05:28:06.583Z,394.24
2023-03-23T05:29:06.736Z,376
2023-03-23T05:30:06.880Z,384
2023-03-23T05:31:06.989Z,405.12
2023-03-23T05:32:07.140Z,433.28
2023-03-23T05:33:07.291Z,457.28
2023-03-23T05:34:07.451Z,475.2
2023-03-23T05:35:07.538Z,488
2023-03-23T05:36:07.744Z,499.2
2023-03-23T05:37:07.791Z,522.24
2023-03-23T05:38:07.898Z,587.2
2023-03-23T05:39:08.000Z,650.24
2023-03-23T05:40:08.176Z,693.12
2023-03-23T05:41:08.295Z,709.12
2023-03-23T05:42:08.422Z,722.56
2023-03-23T05:43:08.548Z,788.48
2023-03-23T05:44:08.701Z,878.08
2023-03-23T05:45:08.871Z,977.28
2023-03-23T05:46:09.020Z,1087.36
2023-03-23T05:47:09.172Z,1181.44
2023-03-23T05:48:09.282Z,1220.48
2023-03-23T05:49:09.423Z,1247.36
2023-03-23T05:50:09.566Z,1245.44
2023-03-23T05:51:09.672Z,1236.48
2023-03-23T05:52:09.812Z,1257.6
2023-03-23T05:53:11.328Z,1415.68
2023-03-23T05:54:10.100Z,1537.28
2023-03-23T05:55:10.222Z,1766.4
2023-03-23T05:56:10.373Z,2033.92
2023-03-23T05:57:10.519Z,2446.08
2023-03-23T05:58:10.674Z,2833.92
2023-03-23T05:59:10.842Z,3238.4
2023-03-23T06:00:10.989Z,3816.96
2023-03-23T06:02:11.184Z,4823.04
2023-03-23T06:03:11.367Z,5514.24
2023-03-23T06:04:11.490Z,6261.76
2023-03-23T06:05:11.583Z,6686.72
2023-03-23T06:06:11.757Z,6702.08
2023-03-23T06:07:11.850Z,6425.6
2023-03-23T06:08:11.988Z,5923.84
2023-03-23T06:09:12.107Z,5102.08
2023-03-23T06:10:12.257Z,4651.52
2023-03-23T06:11:12.399Z,4249.6
2023-03-23T06:12:12.552Z,3909.12
2023-03-23T06:13:12.704Z,3581.44
2023-03-23T06:14:13.370Z,3274.24
2023-03-23T06:15:12.954Z,3061.76
2023-03-23T06:16:13.100Z,2785.28
2023-03-23T06:17:13.262Z,2595.84
2023-03-23T06:18:13.359Z,2423.04
2023-03-23T06:19:13.515Z,2333.44
2023-03-23T06:20:13.667Z,2306.56
2023-03-23T06:21:18.475Z,2419.2
2023-03-23T06:22:13.920Z,2700.8
2023-03-23T06:23:14.034Z,3046.4
2023-03-23T06:24:14.168Z,3397.12
2023-03-23T06:25:14.271Z,3489.28
2023-03-23T06:26:14.412Z,3450.88
2023-03-23T06:27:16.645Z,3409.92
2023-03-23T06:28:14.722Z,3379.2
2023-03-23T06:29:14.884Z,3468.8
2023-03-23T06:30:14.993Z,3640.32
2023-03-23T06:31:15.092Z,3868.16
2023-03-23T06:32:15.240Z,3896.32
2023-03-23T06:33:15.382Z,4032
2023-03-23T06:34:15.477Z,4523.52
2023-03-23T06:35:15.657Z,5048.32
2023-03-23T06:36:15.849Z,5224.96
2023-03-23T06:37:15.943Z,5442.56
2023-03-23T06:38:16.113Z,5652.48
2023-03-23T06:39:16.252Z,5939.2
2023-03-23T06:40:16.425Z,6609.92
2023-03-23T06:41:16.555Z,7720.96
2023-03-23T06:42:16.666Z,7848.96
2023-03-23T06:43:16.757Z,7639.04
2023-03-23T06:44:16.915Z,6963.2
2023-03-23T06:45:17.059Z,5626.88
2023-03-23T06:46:17.209Z,4910.08
2023-03-23T06:47:17.309Z,4971.52
2023-03-23T06:48:17.471Z,5632
2023-03-23T06:49:17.610Z,6297.6
2023-03-23T06:50:17.754Z,6824.96
2023-03-23T06:51:17.917Z,7034.88
2023-03-23T06:52:18.066Z,7198.72
2023-03-23T06:53:18.172Z,7111.68
2023-03-23T06:54:18.280Z,6881.28
2023-03-23T06:55:18.417Z,6809.6
2023-03-23T06:56:18.578Z,7111.68
2023-03-23T06:57:18.721Z,8176.64
2023-03-23T06:58:18.840Z,9651.2
2023-03-23T06:59:18.992Z,11980.8
2023-03-23T07:00:19.135Z,14919.68
2023-03-23T07:01:19.268Z,17111.04
2023-03-23T07:02:19.512Z,17797.12
2023-03-23T07:03:19.546Z,17459.2
2023-03-23T07:04:19.693Z,16547.84
2023-03-23T07:05:19.844Z,13701.12
2023-03-23T07:06:19.997Z,11417.6
2023-03-23T07:07:20.153Z,10040.319
2023-03-23T07:08:20.295Z,8908.8
2023-03-23T07:09:21.331Z,8238.08
2023-03-23T07:10:20.574Z,7541.76
2023-03-23T07:11:20.689Z,6871.04
2023-03-23T07:12:20.860Z,6420.48
2023-03-23T07:13:20.999Z,6343.68
2023-03-23T07:14:21.154Z,6528
2023-03-23T07:15:21.296Z,6563.84
2023-03-23T07:16:21.463Z,6589.44
2023-03-23T07:17:21.613Z,6584.32
2023-03-23T07:18:21.755Z,6133.76
2023-03-23T07:19:21.924Z,6067.2
2023-03-23T07:20:22.059Z,6763.52
2023-03-23T07:21:22.218Z,7034.88
2023-03-23T07:22:24.030Z,6400
2023-03-23T07:23:22.522Z,6266.88
2023-03-23T07:24:22.636Z,6517.76
2023-03-23T07:25:22.790Z,6543.36
2023-03-23T07:26:22.930Z,6722.56
2023-03-23T07:27:23.072Z,6778.88
2023-03-23T07:28:23.180Z,6476.8
2023-03-23T07:29:23.328Z,6707.2
2023-03-23T07:30:23.543Z,7485.44
2023-03-23T07:31:23.578Z,8115.2
2023-03-23T07:32:23.675Z,8227.84
2023-03-23T07:33:23.826Z,8156.16
2023-03-23T07:34:23.981Z,8033.28
2023-03-23T07:35:24.140Z,7700.48
2023-03-23T07:36:24.304Z,7767.04
2023-03-23T07:37:24.425Z,7956.48
2023-03-23T07:38:24.599Z,7961.6
2023-03-23T07:39:24.740Z,7833.6
2023-03-23T07:40:24.889Z,7608.32
2023-03-23T07:41:25.038Z,7633.92
2023-03-23T07:42:25.197Z,7772.16
2023-03-23T07:43:25.352Z,7746.56
2023-03-23T07:44:25.497Z,7910.4
2023-03-23T07:45:25.643Z,8458.24
2023-03-23T07:46:26.761Z,8616.96
2023-03-23T07:47:25.930Z,8704
2023-03-23T07:48:26.055Z,8857.6
2023-03-23T07:49:26.213Z,9036.8
2023-03-23T07:50:26.351Z,9180.16
2023-03-23T07:51:26.510Z,8975.359
2023-03-23T07:52:26.658Z,8862.72
2023-03-23T07:53:26.814Z,8586.24
2023-03-23T07:54:26.958Z,8376.32
2023-03-23T07:55:27.122Z,8412.16
2023-03-23T07:56:27.258Z,9297.92
2023-03-23T07:57:27.419Z,11530.239
2023-03-23T07:58:27.568Z,14407.68
2023-03-23T07:59:27.744Z,15964.159
2023-03-23T08:00:27.868Z,15073.279
2023-03-23T08:01:28.022Z,13568
2023-03-23T08:02:28.199Z,11458.56
2023-03-23T08:03:28.396Z,10987.52
2023-03-23T08:04:28.530Z,11202.56
2023-03-23T08:05:28.681Z,11939.84
2023-03-23T08:06:28.840Z,12687.359
2023-03-23T08:07:28.989Z,12779.52
2023-03-23T08:08:29.282Z,12533.76
2023-03-23T08:09:29.242Z,12277.76
2023-03-23T08:10:29.389Z,12195.84
2023-03-23T08:11:29.492Z,11714.56
2023-03-23T08:12:29.635Z,11376.64
2023-03-23T08:13:29.810Z,10741.76
2023-03-23T08:14:29.949Z,10024.96
2023-03-23T08:15:30.056Z,9666.56
2023-03-23T08:16:30.204Z,9958.399
2023-03-23T08:17:30.350Z,10721.279
2023-03-23T08:18:30.500Z,11673.6
2023-03-23T08:19:30.761Z,12503.04
2023-03-23T08:20:30.936Z,12605.439
2023-03-23T08:21:31.090Z,11950.08
2023-03-23T08:22:31.208Z,10670.08
2023-03-23T08:23:31.360Z,9410.56
2023-03-23T08:24:31.538Z,9267.2
2023-03-23T08:25:31.659Z,9774.08
2023-03-23T08:26:31.812Z,11335.68
2023-03-23T08:27:31.931Z,12759.04
2023-03-23T08:28:33.171Z,14735.359
2023-03-23T08:29:32.231Z,14622.72
2023-03-23T08:30:32.368Z,14725.12
2023-03-23T08:31:32.554Z,12410.88
2023-03-23T08:32:32.627Z,11008
2023-03-23T08:33:32.764Z,10864.64
2023-03-23T08:34:32.923Z,11345.92
2023-03-23T08:35:33.050Z,11816.96
2023-03-23T08:36:33.171Z,11878.399
2023-03-23T08:37:33.335Z,11315.2
2023-03-23T08:38:33.428Z,10250.24
2023-03-23T08:39:33.636Z,9246.72
2023-03-23T08:40:33.739Z,8724.479
2023-03-23T08:41:33.881Z,8734.72
2023-03-23T08:42:34.033Z,9216
2023-03-23T08:43:34.181Z,10260.479
2023-03-23T08:44:34.330Z,11161.6
2023-03-23T08:45:34.440Z,11837.439
2023-03-23T08:46:34.532Z,12288
2023-03-23T08:47:34.690Z,12339.2
2023-03-23T08:48:34.844Z,12277.76
2023-03-23T08:49:34.995Z,12584.96
2023-03-23T08:50:35.117Z,13711.359
2023-03-23T08:51:35.242Z,13998.08
2023-03-23T08:52:35.397Z,13260.8
2023-03-23T08:53:35.549Z,12175.359
2023-03-23T08:54:35.711Z,10915.84
2023-03-23T08:55:35.858Z,10050.56
2023-03-23T08:56:36.079Z,9574.399
2023-03-23T08:57:36.097Z,9384.96
2023-03-23T08:58:36.245Z,9733.12
2023-03-23T08:59:36.360Z,9922.56
2023-03-23T09:00:44.035Z,9912.319
2023-03-23T09:01:36.623Z,9815.04
2023-03-23T09:02:36.729Z,9717.76
2023-03-23T09:03:36.870Z,9441.28
2023-03-23T09:04:37.014Z,9282.56
2023-03-23T09:05:37.171Z,9246.72
2023-03-23T09:06:37.327Z,9318.399
2023-03-23T09:07:37.473Z,9600
2023-03-23T09:08:37.625Z,9999.359
2023-03-23T09:09:37.729Z,10306.56
2023-03-23T09:10:37.873Z,10260.479
2023-03-23T09:11:38.035Z,10132.479
2023-03-23T09:12:38.187Z,10137.6
2023-03-23T09:13:38.338Z,10496
2023-03-23T09:14:38.489Z,11130.88
2023-03-23T09:15:46.499Z,11714.56
2023-03-23T09:16:38.781Z,12267.52
2023-03-23T09:17:38.949Z,12820.479
2023-03-23T09:18:39.105Z,14612.479
2023-03-23T09:19:39.240Z,15298.56
2023-03-23T09:20:39.393Z,15636.479
2023-03-23T09:21:39.548Z,15267.84
2023-03-23T09:22:39.705Z,14172.16
2023-03-23T09:23:39.838Z,13271.04
2023-03-23T09:24:40.005Z,12544
2023-03-23T09:25:40.292Z,12298.239
2023-03-23T09:26:40.306Z,12154.88
2023-03-23T09:27:40.461Z,11489.279
2023-03-23T09:28:40.608Z,11540.479
2023-03-23T09:29:40.754Z,12288
2023-03-23T09:30:51.387Z,13578.239
2023-03-23T09:31:41.064Z,15605.76
2023-03-23T09:32:41.217Z,17131.52
2023-03-23T09:33:41.367Z,18554.88
2023-03-23T09:34:41.528Z,19415.04
2023-03-23T09:35:41.802Z,20879.36
2023-03-23T09:36:41.817Z,22343.68
2023-03-23T09:37:41.970Z,22691.84
2023-03-23T09:38:42.081Z,22302.72
2023-03-23T09:39:42.226Z,24166.4
2023-03-23T09:40:42.333Z,23879.68
2023-03-23T09:41:42.478Z,20643.84
2023-03-23T09:42:42.639Z,18544.64
2023-03-23T09:43:42.777Z,17418.24
2023-03-23T09:44:42.927Z,16660.48
2023-03-23T09:45:43.336Z,16209.92
2023-03-23T09:46:43.197Z,15994.88
2023-03-23T09:47:43.302Z,14602.239
2023-03-23T09:48:43.443Z,13854.72
2023-03-23T09:49:43.539Z,13762.56
2023-03-23T09:50:43.701Z,14233.6
2023-03-23T09:51:43.855Z,15165.439
2023-03-23T09:52:44.000Z,16332.8
2023-03-23T09:53:44.153Z,17336.32
2023-03-23T09:54:44.299Z,18278.4
2023-03-23T09:55:44.630Z,18739.2
2023-03-23T09:56:44.600Z,17838.08
2023-03-23T09:57:44.724Z,16844.8
2023-03-23T09:58:45.881Z,15820.8
2023-03-23T09:59:45.008Z,14592
2023-03-23T10:00:45.175Z,14018.56
2023-03-23T10:01:45.258Z,14141.439
2023-03-23T10:02:45.428Z,14643.199
2023-03-23T10:03:45.534Z,15073.279
2023-03-23T10:04:45.666Z,15493.12
2023-03-23T10:05:45.823Z,15933.439
2023-03-23T10:06:45.965Z,16373.76
2023-03-23T10:07:46.127Z,16742.4
2023-03-23T10:08:56.761Z,16773.12
2023-03-23T10:09:46.370Z,16373.76
2023-03-23T10:10:46.536Z,15974.399
2023-03-23T10:11:47.799Z,15380.479
2023-03-23T10:12:46.838Z,15493.12
2023-03-23T10:13:46.988Z,16353.279
2023-03-23T10:14:47.127Z,16670.72
2023-03-23T10:15:47.289Z,16199.68
2023-03-23T10:16:47.363Z,15943.68
2023-03-23T10:17:47.590Z,16773.12
2023-03-23T10:18:47.681Z,15902.72
2023-03-23T10:19:47.825Z,14448.64
2023-03-23T10:20:47.995Z,14100.479
2023-03-23T10:21:48.139Z,13854.72
2023-03-23T10:22:48.306Z,13219.84
2023-03-23T10:23:48.445Z,11550.72
2023-03-23T10:24:48.611Z,11571.2
2023-03-23T10:25:48.749Z,11724.8
2023-03-23T10:26:48.904Z,11499.52
2023-03-23T10:27:48.999Z,11110.399
2023-03-23T10:28:49.153Z,11520
2023-03-23T10:29:49.307Z,12257.279
2023-03-23T10:30:49.474Z,12636.16
2023-03-23T10:31:49.719Z,14028.8
2023-03-23T10:32:49.716Z,15022.08
2023-03-23T10:33:49.861Z,16742.4
2023-03-23T10:34:49.963Z,18698.24
2023-03-23T10:35:50.142Z,19476.48
2023-03-23T10:36:50.237Z,19916.8
2023-03-23T10:37:50.374Z,21626.88
2023-03-23T10:38:50.477Z,22999.04
2023-03-23T10:39:50.587Z,24719.36
2023-03-23T10:40:50.734Z,24801.28
2023-03-23T10:41:50.826Z,24821.76
2023-03-23T10:42:50.986Z,24698.88
2023-03-23T10:43:51.142Z,21934.08
2023-03-23T10:44:51.324Z,16035.84
2023-03-23T10:46:00.101Z,15370.239
2023-03-23T10:46:51.576Z,18493.44
2023-03-23T10:47:51.692Z,17295.36
2023-03-23T10:48:51.837Z,14858.239
2023-03-23T10:49:51.991Z,15052.8
2023-03-23T10:50:52.148Z,15104
2023-03-23T10:51:52.291Z,15022.08
2023-03-23T10:52:52.459Z,15646.72
2023-03-23T10:53:52.609Z,16281.6
2023-03-23T10:54:52.697Z,16066.56
2023-03-23T10:55:52.847Z,14069.76
2023-03-23T10:56:58.467Z,13527.04
2023-03-23T10:57:53.150Z,18227.2
2023-03-23T10:58:53.295Z,18370.56
2023-03-23T10:59:53.455Z,17930.24
2023-03-23T11:00:53.633Z,19251.2
2023-03-23T11:01:53.718Z,17326.08
2023-03-23T11:02:53.860Z,16465.92
2023-03-23T11:03:53.965Z,13701.12
2023-03-23T11:04:54.115Z,12503.04
2023-03-23T11:05:54.224Z,11315.2
2023-03-23T11:06:54.356Z,11601.92
2023-03-23T11:07:54.515Z,10762.24
2023-03-23T11:08:54.668Z,10199.04
2023-03-23T11:09:54.814Z,10639.359
2023-03-23T11:10:54.975Z,10439.68
2023-03-23T11:12:01.871Z,8862.72
2023-03-23T11:12:55.286Z,8862.72
2023-03-23T11:13:55.407Z,7925.76
2023-03-23T11:14:55.529Z,9559.04
2023-03-23T11:15:55.686Z,12605.439
2023-03-23T11:16:57.722Z,11038.72
2023-03-23T11:17:55.985Z,8309.76
2023-03-23T11:18:56.091Z,7137.28
2023-03-23T11:19:56.229Z,7014.4
2023-03-23T11:20:56.390Z,6860.8
2023-03-23T11:21:56.541Z,6860.8
2023-03-23T11:22:56.696Z,6256.64
2023-03-23T11:24:07.364Z,6548.48
2023-03-23T11:24:56.990Z,6717.44
2023-03-23T11:25:57.145Z,8391.68
2023-03-23T11:26:58.947Z,9246.72
2023-03-23T11:27:57.457Z,7956.48
2023-03-23T11:28:57.594Z,8970.24
2023-03-23T11:29:58.609Z,11571.2
2023-03-23T11:30:57.846Z,11796.479
2023-03-23T11:31:57.982Z,9328.64
2023-03-23T11:32:58.115Z,11878.399
2023-03-23T11:34:05.753Z,15912.96
2023-03-23T11:35:07.038Z,20336.64
2023-03-23T11:35:58.576Z,23265.28
2023-03-23T11:36:59.063Z,23265.28
2023-03-23T11:37:58.846Z,21975.04
2023-03-23T11:38:58.921Z,19804.16
2023-03-23T11:39:59.024Z,18298.88
2023-03-23T11:40:59.167Z,16885.76
2023-03-23T11:42:08.929Z,16465.92
2023-03-23T11:42:59.373Z,17213.44
2023-03-23T11:43:59.535Z,18247.68
2023-03-23T11:44:59.681Z,20203.52
2023-03-23T11:45:59.833Z,20971.52
2023-03-23T11:46:59.973Z,22425.6
2023-03-23T11:48:00.136Z,22077.44
2023-03-23T11:49:00.286Z,20172.8
2023-03-23T11:50:00.422Z,19732.48
2023-03-23T11:51:00.525Z,20510.72
2023-03-23T11:52:00.727Z,21360.64
2023-03-23T11:53:00.847Z,23408.64
2023-03-23T11:54:01.024Z,24186.88
2023-03-23T11:55:01.167Z,25415.68
2023-03-23T11:56:01.374Z,26624
2023-03-23T11:57:01.457Z,26234.88
2023-03-23T11:58:01.599Z,26501.12
2023-03-23T11:59:01.739Z,26316.8
2023-03-23T12:00:01.829Z,27422.72
2023-03-23T12:01:01.972Z,27791.36
2023-03-23T12:02:11.708Z,28385.28
2023-03-23T12:03:02.229Z,28528.64
2023-03-23T12:04:02.386Z,27688.96
2023-03-23T12:05:02.560Z,27054.08
2023-03-23T12:06:02.687Z,25968.64
2023-03-23T12:07:02.853Z,25272.32
2023-03-23T12:08:03.009Z,24002.56
2023-03-23T12:09:03.466Z,22548.48
2023-03-23T12:10:03.663Z,21319.68
2023-03-23T12:11:04.029Z,19425.28
2023-03-23T12:12:03.577Z,18114.56
2023-03-23T12:13:03.736Z,17571.84
2023-03-23T12:14:03.834Z,17879.04
2023-03-23T12:15:03.944Z,17848.32
2023-03-23T12:16:04.080Z,17602.56
2023-03-23T12:17:04.217Z,16988.16
2023-03-23T12:18:04.377Z,18053.12
2023-03-23T12:19:04.523Z,19261.44
2023-03-23T12:20:04.688Z,20049.92
2023-03-23T12:21:04.838Z,21196.8
2023-03-23T12:22:04.976Z,22425.6
2023-03-23T12:23:05.163Z,22241.28
2023-03-23T12:24:06.385Z,19200
2023-03-23T12:25:05.390Z,15851.52
2023-03-23T12:26:05.559Z,15360
2023-03-23T12:27:05.702Z,15257.6
2023-03-23T12:28:05.846Z,13393.92
2023-03-23T12:29:05.991Z,10357.76
2023-03-23T12:30:06.167Z,10700.8
2023-03-23T12:31:06.306Z,13824
2023-03-23T12:32:06.458Z,16424.96
2023-03-23T12:33:06.625Z,18606.08
2023-03-23T12:34:06.775Z,19066.88
2023-03-23T12:35:06.910Z,17203.2
2023-03-23T12:36:07.076Z,14008.319
2023-03-23T12:37:07.198Z,12369.92
2023-03-23T12:38:07.353Z,9943.04
2023-03-23T12:39:07.501Z,9548.8